createdAt,value
2024-03-06T00:02:29.643Z,15.63
2024-03-06T00:07:34.007Z,12.80
2024-03-06T00:12:37.722Z,15.20
2024-03-06T00:17:42.984Z,10.35
2024-03-06T00:22:47.344Z,11.80
2024-03-06T00:27:50.982Z,7.20
2024-03-06T00:32:56.261Z,12.18
2024-03-06T00:38:03.830Z,11.80
2024-03-06T00:43:08.111Z,21.42
2024-03-06T00:48:13.120Z,16.13
2024-03-06T00:53:17.638Z,7.10
2024-03-06T00:58:21.306Z,15.77
2024-03-06T01:03:26.531Z,16.75
2024-03-06T01:08:31.744Z,15.18
2024-03-06T01:13:35.419Z,14.43
2024-03-06T01:18:40.411Z,11.98
2024-03-06T01:23:44.719Z,9.23
2024-03-06T01:28:48.576Z,13.95
2024-03-06T01:33:53.645Z,8.45
2024-03-06T01:38:57.620Z,15.05
2024-03-06T01:44:02.482Z,12.77
2024-03-06T01:49:08.590Z,7.65
2024-03-06T01:54:13.272Z,9.18
2024-03-06T02:04:37.852Z,9.90
2024-03-06T02:09:41.821Z,12.20
2024-03-06T02:14:45.637Z,7.95
2024-03-06T02:19:51.628Z,11.80
2024-03-06T02:24:57.049Z,14.70
2024-03-06T02:30:00.990Z,12.15
2024-03-06T02:35:09.690Z,9.63
2024-03-06T02:40:15.672Z,5.53
2024-03-06T02:45:19.854Z,9.27
2024-03-06T02:50:24.556Z,9.60
2024-03-06T03:00:34.254Z,15.55
2024-03-06T03:05:38.204Z,12.47
2024-03-06T03:10:43.370Z,8.93
2024-03-06T03:15:48.391Z,9.55
2024-03-06T03:20:53.259Z,5.97
2024-03-06T03:25:58.601Z,12.75
2024-03-06T03:31:02.214Z,6.47
2024-03-06T03:36:07.803Z,5.57
2024-03-06T03:41:14.280Z,13.93
2024-03-06T03:46:18.005Z,10.48
2024-03-06T03:51:21.850Z,9.18
2024-03-06T03:56:27.246Z,8.80
2024-03-06T04:01:31.030Z,6.60
2024-03-06T04:06:35.049Z,9.57
2024-03-06T04:11:41.339Z,11.57
2024-03-06T04:16:46.337Z,9.45
2024-03-06T04:21:50.003Z,7.85
2024-03-06T04:26:55.009Z,7.43
2024-03-06T04:31:58.710Z,12.93
2024-03-06T04:37:03.316Z,10.70
2024-03-06T04:42:08.487Z,8.70
2024-03-06T04:47:12.358Z,8.75
2024-03-06T04:52:16.116Z,9.47
2024-03-06T04:57:21.149Z,7.78
2024-03-06T05:02:24.819Z,11.15
2024-03-06T06:01:10.783Z,10.02
2024-03-06T06:06:16.108Z,8.38
2024-03-06T06:11:20.409Z,4.78
2024-03-06T06:16:25.401Z,18.30
2024-03-06T06:21:29.157Z,5.45
2024-03-06T06:26:33.709Z,8.07
2024-03-06T06:31:38.875Z,7.85
2024-03-06T06:36:46.668Z,15.27
2024-03-06T06:41:50.559Z,13.77
2024-03-06T06:46:55.663Z,6.75
2024-03-06T06:52:00.214Z,13.23
2024-03-06T06:57:04.672Z,15.83
2024-03-06T07:02:10.088Z,20.40
2024-03-06T07:07:15.903Z,27.60
2024-03-06T07:12:19.573Z,14.68
2024-03-06T07:17:25.001Z,17.00
2024-03-06T07:22:28.734Z,16.88
2024-03-06T07:27:33.524Z,22.58
2024-03-06T07:32:41.601Z,16.65
2024-03-06T07:37:46.043Z,20.95
2024-03-06T07:42:50.850Z,22.93
2024-03-06T07:47:56.335Z,22.50
2024-03-06T07:53:00.909Z,24.88
2024-03-06T07:58:04.765Z,26.65
2024-03-06T08:03:09.944Z,22.88
2024-03-06T08:08:13.655Z,23.25
2024-03-06T08:13:20.266Z,19.70
2024-03-06T08:18:26.072Z,19.92
2024-03-06T08:23:30.126Z,18.92
2024-03-06T08:28:34.902Z,16.88
2024-03-06T08:33:40.529Z,20.45
2024-03-06T08:38:44.274Z,18.88
2024-03-06T08:43:48.877Z,16.67
2024-03-06T08:48:54.744Z,19.25
2024-03-06T08:53:58.780Z,15.13
2024-03-06T08:59:04.718Z,15.35
2024-03-06T09:04:09.600Z,13.35
2024-03-06T09:09:15.980Z,13.23
2024-03-06T09:14:19.761Z,19.10
2024-03-06T09:19:24.611Z,18.63
2024-03-06T09:24:29.239Z,14.52
2024-03-06T09:29:33.249Z,13.23
2024-03-06T09:34:38.852Z,15.20
2024-03-06T09:39:43.077Z,13.48
2024-03-06T09:44:48.631Z,12.17
2024-03-06T09:49:57.717Z,9.18
2024-03-06T09:55:02.411Z,11.13
2024-03-06T10:00:13.486Z,17.40
2024-03-06T10:05:25.442Z,12.30
2024-03-06T10:10:29.585Z,11.98
2024-03-06T10:15:38.370Z,14.55
2024-03-06T10:20:45.033Z,10.25
2024-03-06T10:25:55.887Z,15.35
2024-03-06T10:31:07.189Z,13.82
2024-03-06T10:36:12.884Z,15.73
2024-03-06T10:41:21.081Z,16.85
2024-03-06T10:46:31.047Z,23.73
2024-03-06T10:51:36.960Z,13.13
2024-03-06T10:56:43.360Z,18.10
2024-03-06T11:01:48.499Z,20.58
2024-03-06T11:11:58.316Z,15.93
2024-03-06T11:17:08.898Z,21.27
2024-03-06T11:22:14.417Z,19.85
2024-03-06T11:27:18.342Z,17.52
2024-03-06T11:32:24.745Z,18.30
2024-03-06T11:37:30.539Z,18.80
2024-03-06T11:42:37.550Z,19.00
2024-03-06T11:47:57.274Z,20.20
2024-03-06T11:53:02.911Z,19.02
2024-03-06T11:58:09.360Z,14.57
2024-03-06T12:03:15.448Z,13.73
2024-03-06T12:08:21.821Z,16.05
2024-03-06T12:13:26.300Z,14.60
2024-03-06T12:18:30.803Z,11.18
2024-03-06T12:23:36.386Z,13.63
2024-03-06T12:28:40.704Z,13.75
2024-03-06T12:33:44.879Z,14.43
2024-03-06T12:38:56.881Z,14.53
2024-03-06T12:44:02.998Z,17.17
2024-03-06T12:49:08.430Z,16.02
2024-03-06T12:59:17.793Z,18.50
2024-03-06T13:04:21.808Z,15.57
2024-03-06T13:09:26.881Z,12.23
2024-03-06T13:19:36.163Z,17.50
2024-03-06T13:24:43.959Z,22.58
2024-03-06T13:29:49.137Z,22.83
2024-03-06T13:34:52.841Z,19.65
2024-03-06T13:40:02.176Z,19.30
2024-03-06T13:45:07.144Z,20.10
2024-03-06T13:50:13.069Z,18.52
2024-03-06T13:55:19.080Z,17.70
2024-03-06T14:00:23.467Z,20.05
2024-03-06T14:05:27.871Z,19.98
2024-03-06T14:10:34.860Z,20.57
2024-03-06T14:15:41.226Z,21.23
2024-03-06T14:20:45.625Z,22.73
2024-03-06T14:25:52.224Z,16.42
2024-03-06T14:30:56.139Z,22.55
2024-03-06T14:36:01.308Z,16.27
2024-03-06T14:41:08.170Z,21.95
2024-03-06T14:46:12.232Z,24.13
2024-03-06T14:51:19.518Z,17.33
2024-03-06T14:56:25.432Z,20.48
2024-03-06T15:01:30.286Z,23.95
2024-03-06T15:06:34.715Z,17.67
2024-03-06T15:16:45.765Z,16.65
2024-03-06T15:21:50.259Z,18.08
2024-03-06T15:26:55.764Z,16.70
2024-03-06T15:32:01.129Z,11.00
2024-03-06T15:37:06.597Z,15.30
2024-03-06T15:42:13.195Z,19.88
2024-03-06T15:47:18.677Z,17.17
2024-03-06T15:52:22.652Z,18.58
2024-03-06T15:57:29.107Z,13.25
2024-03-06T16:02:33.271Z,20.58
2024-03-06T16:07:44.169Z,14.32
2024-03-06T16:12:56.539Z,14.40
2024-03-06T16:18:02.419Z,15.73
2024-03-06T16:23:06.681Z,12.52
2024-03-06T16:28:12.820Z,16.83
2024-03-06T16:33:18.957Z,12.75
2024-03-06T16:38:23.274Z,16.17
2024-03-06T16:43:29.125Z,10.38
2024-03-06T16:53:37.195Z,12.70
2024-03-06T16:58:42.628Z,10.93
2024-03-06T17:03:46.783Z,12.10
2024-03-06T17:08:50.849Z,11.18
2024-03-06T17:13:56.050Z,15.30
2024-03-06T17:24:08.237Z,17.63
2024-03-06T17:29:13.438Z,13.93
2024-03-06T17:39:26.566Z,17.25
2024-03-06T17:44:33.770Z,17.27
2024-03-06T17:49:39.225Z,15.73
2024-03-06T17:54:43.798Z,16.05
2024-03-06T17:59:49.354Z,15.00
2024-03-06T18:04:53.822Z,16.67
2024-03-06T18:09:58.936Z,17.27
2024-03-06T18:15:04.487Z,12.13
2024-03-06T18:20:11.124Z,14.90
2024-03-06T18:25:15.979Z,20.23
2024-03-06T18:30:21.934Z,13.20
2024-03-06T18:35:25.784Z,15.57
2024-03-06T18:40:29.843Z,15.82
2024-03-06T18:45:35.257Z,15.70
2024-03-06T18:50:39.537Z,13.80
2024-03-06T18:55:44.372Z,16.75
2024-03-06T19:00:52.325Z,14.70
2024-03-06T19:05:56.863Z,13.57
2024-03-06T19:11:01.550Z,14.05
2024-03-06T19:16:11.204Z,14.63
2024-03-06T19:21:15.266Z,14.68
2024-03-06T19:26:19.631Z,22.37
2024-03-06T19:31:25.201Z,16.80
2024-03-06T19:36:29.338Z,18.05
2024-03-06T19:41:33.215Z,17.52
2024-03-06T19:46:38.306Z,17.30
2024-03-06T19:51:46.544Z,18.98
2024-03-06T19:56:54.312Z,22.17
2024-03-06T20:02:01.283Z,20.27
2024-03-06T20:07:05.641Z,21.05
2024-03-06T20:12:10.342Z,23.47
2024-03-06T20:17:17.423Z,23.60
2024-03-06T20:22:21.239Z,28.33
2024-03-06T20:27:28.392Z,23.20
2024-03-06T20:32:33.576Z,26.20
2024-03-06T20:42:41.680Z,27.77
2024-03-06T20:47:48.412Z,23.50
2024-03-06T20:52:52.449Z,26.40
2024-03-06T20:57:58.875Z,24.52
2024-03-06T21:03:04.808Z,25.80
2024-03-06T21:08:11.726Z,20.65
2024-03-06T21:13:16.723Z,16.95
2024-03-06T21:18:22.336Z,26.55
2024-03-06T21:23:27.062Z,24.33
2024-03-06T21:28:34.348Z,26.73
2024-03-06T21:33:41.151Z,32.97
2024-03-06T21:38:47.674Z,24.48
2024-03-06T21:43:59.908Z,33.33
2024-03-06T21:49:08.465Z,32.60
2024-03-06T21:54:12.211Z,30.35
2024-03-06T21:59:17.040Z,30.45
2024-03-06T22:04:23.651Z,24.45
2024-03-06T22:09:27.297Z,37.17
2024-03-06T22:14:32.890Z,27.48
2024-03-06T22:19:38.166Z,31.70
2024-03-06T22:24:41.840Z,28.40
2024-03-06T22:29:45.525Z,35.97
2024-03-06T22:34:52.869Z,30.52
2024-03-06T22:39:57.267Z,36.42
2024-03-06T22:45:01.219Z,33.30
2024-03-06T22:50:07.168Z,49.30
2024-03-06T22:55:11.233Z,35.08
2024-03-06T23:00:23.222Z,44.55
2024-03-06T23:05:29.141Z,39.17
2024-03-06T23:10:32.753Z,41.60
2024-03-06T23:15:37.369Z,42.72
2024-03-06T23:20:43.909Z,55.70
2024-03-06T23:25:48.398Z,47.00
2024-03-06T23:35:59.115Z,48.93
2024-03-06T23:41:02.977Z,43.00
2024-03-06T23:46:06.613Z,50.17
2024-03-06T23:51:12.188Z,50.75
2024-03-06T23:56:16.393Z,40.75
